Time;durP1;ratioP1;P1;durP2;ratioP2;P2;SDS_P1;SDS_P2;PMS_P1;PMS_P2;Temp;Humidity;BMP_temperature;BMP_pressure;BME280_temperature;BME280_humidity;BME280_pressure;Samples;Min_cycle;Max_cycle;Signal;HPM_P1;HPM_P2
2023/11/23 00:00:53;;;;;;;7.10;3.13;;;5.30;99.90;;;;;;5075940;28;20203;-78
2023/11/23 00:03:20;;;;;;;6.03;3.47;;;5.40;99.90;;;;;;5069472;28;20200;-79
2023/11/23 00:05:49;;;;;;;6.87;2.77;;;5.50;99.90;;;;;;5079150;28;20198;-78
2023/11/23 00:08:15;;;;;;;6.90;3.27;;;5.40;99.90;;;;;;5073368;28;20221;-80
2023/11/23 00:10:42;;;;;;;6.53;3.30;;;5.40;99.90;;;;;;5077343;28;20214;-80
2023/11/23 00:13:09;;;;;;;5.87;3.70;;;5.40;99.90;;;;;;5075045;28;20225;-79
2023/11/23 00:15:36;;;;;;;6.27;3.43;;;5.40;99.90;;;;;;5075163;28;20203;-81
2023/11/23 00:18:03;;;;;;;6.10;3.40;;;5.30;99.90;;;;;;5070800;28;20218;-80
2023/11/23 00:20:30;;;;;;;4.90;3.27;;;5.40;99.90;;;;;;5074894;28;20208;-79
2023/11/23 00:22:59;;;;;;;7.17;4.07;;;5.40;99.90;;;;;;5074921;28;20194;-80
2023/11/23 00:25:27;;;;;;;7.27;4.10;;;5.60;99.90;;;;;;5073616;28;20204;-80
2023/11/23 00:27:54;;;;;;;8.07;3.40;;;5.50;1.00;;;;;;5076063;28;20573;-79
2023/11/23 00:30:21;;;;;;;10.03;4.33;;;5.50;1.00;;;;;;5078704;28;20279;-82
2023/11/23 00:32:48;;;;;;;7.80;3.73;;;5.50;1.00;;;;;;5073292;28;20321;-81
2023/11/23 00:35:16;;;;;;;6.40;3.73;;;5.50;1.00;;;;;;5069459;28;20293;-81
2023/11/23 00:37:45;;;;;;;8.07;3.73;;;5.50;1.00;;;;;;5074268;28;20317;-79
2023/11/23 00:40:14;;;;;;;9.97;5.07;;;5.50;1.00;;;;;;5074412;28;20199;-79
2023/11/23 00:42:41;;;;;;;9.87;4.30;;;5.60;1.00;;;;;;5070800;28;20208;-80
2023/11/23 00:45:09;;;;;;;10.23;4.87;;;5.60;1.00;;;;;;5073201;28;20201;-81
2023/11/23 00:47:36;;;;;;;8.87;4.97;;;5.70;1.00;;;;;;5078496;28;20296;-80
2023/11/23 00:50:05;;;;;;;13.13;4.93;;;5.70;1.00;;;;;;5073160;28;20286;-78
2023/11/23 00:52:32;;;;;;;9.13;4.80;;;5.80;1.00;;;;;;5069670;28;20254;-80
2023/11/23 00:54:59;;;;;;;8.90;4.93;;;5.70;1.00;;;;;;5073811;28;20211;-80
2023/11/23 00:57:27;;;;;;;8.57;4.30;;;5.80;1.00;;;;;;5068425;28;20227;-79
2023/11/23 00:59:54;;;;;;;8.60;4.70;;;5.80;1.00;;;;;;5068514;28;20684;-80
2023/11/23 01:02:21;;;;;;;8.73;4.10;;;5.80;1.00;;;;;;5070215;28;20207;-79
2023/11/23 01:04:48;;;;;;;8.03;4.17;;;5.90;1.00;;;;;;5073133;28;20742;-79
2023/11/23 01:07:15;;;;;;;8.97;5.00;;;6.00;1.00;;;;;;5063052;28;20226;-80
2023/11/23 01:09:41;;;;;;;9.67;4.80;;;6.00;1.00;;;;;;5069011;28;20229;-80
2023/11/23 01:12:09;;;;;;;9.37;3.80;;;6.00;1.00;;;;;;5071465;28;20213;-78
2023/11/23 01:14:38;;;;;;;10.53;4.47;;;6.00;1.00;;;;;;5069751;28;20203;-81
2023/11/23 01:17:05;;;;;;;8.43;4.60;;;6.00;1.00;;;;;;5064260;28;20222;-79
2023/11/23 01:19:32;;;;;;;8.83;4.70;;;6.00;1.00;;;;;;5073292;28;20772;-80
2023/11/23 01:21:59;;;;;;;9.67;4.90;;;6.00;1.00;;;;;;5075559;28;20210;-79
2023/11/23 01:24:26;;;;;;;10.27;5.20;;;6.10;1.00;;;;;;5075482;28;20214;-79
2023/11/23 01:26:53;;;;;;;10.33;5.27;;;6.10;1.00;;;;;;5074326;28;20202;-81
2023/11/23 01:29:20;;;;;;;10.63;5.83;;;6.10;1.00;;;;;;5073426;28;20198;-81
2023/11/23 01:31:49;;;;;;;11.87;5.50;;;6.10;1.00;;;;;;5078392;28;20202;-79
2023/11/23 01:34:16;;;;;;;8.70;4.87;;;6.10;1.00;;;;;;5069380;28;20704;-79
2023/11/23 01:36:43;;;;;;;10.80;5.70;;;6.20;1.00;;;;;;5069982;28;20207;-81
2023/11/23 01:39:11;;;;;;;12.87;5.70;;;6.20;59.20;;;;;;5074462;28;20202;-80
2023/11/23 01:41:38;;;;;;;13.40;5.50;;;6.20;80.90;;;;;;5073733;28;20263;-80
2023/11/23 01:44:06;;;;;;;14.40;6.57;;;6.20;99.90;;;;;;5067703;28;20194;-82
2023/11/23 01:46:33;;;;;;;10.97;5.53;;;6.20;99.90;;;;;;5072518;28;20198;-82
2023/11/23 01:49:04;;;;;;;11.57;6.40;;;6.20;99.90;;;;;;5076716;28;20260;-81
2023/11/23 01:51:33;;;;;;;9.87;5.43;;;6.20;99.90;;;;;;5076281;28;20202;-82
2023/11/23 01:54:00;;;;;;;11.57;6.47;;;6.20;99.90;;;;;;5080880;28;20682;-82
2023/11/23 01:56:30;;;;;;;12.57;6.13;;;6.20;99.90;;;;;;5065937;28;20294;-82
2023/11/23 01:58:57;;;;;;;14.17;6.27;;;6.30;99.90;;;;;;5068725;28;20741;-80
2023/11/23 02:01:23;;;;;;;13.53;7.03;;;6.30;1.00;;;;;;5064161;28;20199;-80
2023/11/23 02:03:51;;;;;;;14.83;7.17;;;6.30;1.00;;;;;;5079584;28;20201;-79
2023/11/23 02:06:20;;;;;;;15.47;6.67;;;6.30;1.00;;;;;;5074467;28;20212;-81
2023/11/23 02:08:48;;;;;;;15.17;7.57;;;6.30;1.00;;;;;;5075057;28;20219;-81
2023/11/23 02:11:15;;;;;;;14.67;7.73;;;6.30;1.00;;;;;;5072926;28;20232;-81
2023/11/23 02:13:43;;;;;;;15.23;7.83;;;6.30;1.00;;;;;;5067940;28;20245;-80
2023/11/23 02:16:10;;;;;;;17.87;7.93;;;6.30;1.00;;;;;;5070096;28;20736;-82
2023/11/23 02:18:37;;;;;;;14.77;8.33;;;6.30;1.00;;;;;;5066309;28;20306;-78
2023/11/23 02:21:06;;;;;;;15.90;8.37;;;6.30;1.00;;;;;;5076139;28;20205;-80
2023/11/23 02:23:35;;;;;;;18.40;9.50;;;6.40;99.90;;;;;;5077499;28;20222;-81
2023/11/23 02:26:03;;;;;;;18.60;9.67;;;6.40;99.90;;;;;;5072857;28;20203;-81
2023/11/23 02:28:33;;;;;;;17.63;8.50;;;6.50;99.90;;;;;;5063692;28;20624;-80
2023/11/23 02:31:01;;;;;;;17.63;9.10;;;6.40;99.90;;;;;;5074921;28;20204;-79
2023/11/23 02:33:27;;;;;;;20.90;9.67;;;6.40;1.00;;;;;;5074858;28;20222;-82
2023/11/23 02:35:54;;;;;;;20.67;11.13;;;6.30;1.00;;;;;;5075354;28;20206;-80
2023/11/23 02:38:21;;;;;;;19.67;10.03;;;6.40;1.00;;;;;;5068051;28;20218;-81
2023/11/23 02:40:48;;;;;;;18.33;8.53;;;6.40;1.00;;;;;;5074506;28;20206;-82
2023/11/23 02:43:16;;;;;;;19.37;10.30;;;6.40;1.00;;;;;;5075685;28;20651;-79
2023/11/23 02:45:43;;;;;;;21.53;11.40;;;6.40;1.00;;;;;;5073254;28;20209;-79
2023/11/23 02:48:10;;;;;;;20.10;10.53;;;6.40;1.00;;;;;;5070860;28;20214;-80
2023/11/23 02:50:37;;;;;;;20.27;11.93;;;6.40;1.00;;;;;;5069185;28;20203;-80
2023/11/23 02:53:04;;;;;;;22.03;10.77;;;6.50;1.00;;;;;;5072015;28;20233;-80
2023/11/23 02:55:31;;;;;;;21.03;11.73;;;6.50;1.00;;;;;;5075526;28;20202;-81
2023/11/23 02:57:58;;;;;;;24.07;11.53;;;6.50;1.00;;;;;;5076509;28;20225;-80
2023/11/23 03:00:27;;;;;;;21.60;11.50;;;6.50;1.00;;;;;;5080352;28;20266;-80
2023/11/23 03:02:54;;;;;;;22.33;11.80;;;6.60;1.00;;;;;;5075132;28;20222;-79
2023/11/23 03:05:22;;;;;;;17.73;10.90;;;6.60;1.00;;;;;;5076791;28;20209;-79
2023/11/23 03:07:49;;;;;;;23.90;12.70;;;6.60;1.00;;;;;;5074414;28;20278;-83
2023/11/23 03:10:17;;;;;;;21.23;11.33;;;6.60;10.70;;;;;;5079422;28;20193;-82
2023/11/23 03:12:43;;;;;;;25.30;12.93;;;6.50;15.10;;;;;;5069955;28;20220;-83
2023/11/23 03:15:11;;;;;;;22.60;11.83;;;6.60;99.90;;;;;;5071345;28;20569;-80
2023/11/23 03:17:40;;;;;;;19.10;10.53;;;6.60;99.90;;;;;;5067265;28;20719;-82
2023/11/23 03:20:09;;;;;;;27.17;13.10;;;6.70;99.90;;;;;;5072257;28;20200;-82
2023/11/23 03:22:36;;;;;;;19.80;11.00;;;6.70;99.90;;;;;;5080545;28;20210;-81
2023/11/23 03:25:03;;;;;;;20.23;11.03;;;6.80;99.90;;;;;;5081395;28;20202;-80
2023/11/23 03:27:30;;;;;;;19.83;10.07;;;6.80;99.90;;;;;;5093818;28;20244;-80
2023/11/23 03:29:57;;;;;;;23.77;11.10;;;6.80;99.90;;;;;;5078907;28;20244;-81
2023/11/23 03:32:25;;;;;;;23.30;10.60;;;6.90;99.90;;;;;;5078914;28;20202;-80
2023/11/23 03:34:53;;;;;;;19.87;9.07;;;7.00;98.60;;;;;;5065950;28;20223;-82
2023/11/23 03:37:20;;;;;;;21.47;11.00;;;7.00;1.00;;;;;;5078045;28;20226;-79
2023/11/23 03:39:47;;;;;;;18.43;11.17;;;7.00;1.00;;;;;;5072844;28;20198;-79
2023/11/23 03:42:14;;;;;;;22.00;11.57;;;7.00;64.30;;;;;;5075971;28;20271;-80
2023/11/23 03:44:42;;;;;;;17.73;9.63;;;7.10;99.90;;;;;;5076017;28;20198;-82
2023/11/23 03:47:08;;;;;;;19.90;10.00;;;7.20;99.90;;;;;;5073453;28;20242;-80
2023/11/23 03:49:35;;;;;;;21.03;10.93;;;7.10;99.90;;;;;;5073103;28;20206;-83
2023/11/23 03:52:04;;;;;;;20.90;11.23;;;7.10;99.90;;;;;;5070406;28;20583;-83
2023/11/23 03:54:31;;;;;;;23.53;11.57;;;7.10;99.90;;;;;;5074675;28;20233;-81
2023/11/23 03:56:58;;;;;;;24.43;12.27;;;7.10;99.90;;;;;;5074856;28;20623;-83
2023/11/23 03:59:25;;;;;;;22.90;12.63;;;7.10;1.00;;;;;;5070253;28;20215;-83
2023/11/23 04:01:52;;;;;;;21.00;12.00;;;7.10;1.00;;;;;;5080496;28;20214;-82
2023/11/23 04:04:19;;;;;;;17.87;11.43;;;7.10;1.00;;;;;;5066092;28;20195;-82
2023/11/23 04:06:46;;;;;;;21.10;12.10;;;7.10;1.00;;;;;;5072892;28;20213;-82
2023/11/23 04:09:17;;;;;;;21.07;11.50;;;7.10;1.00;;;;;;5073096;28;20206;-82
2023/11/23 04:11:44;;;;;;;21.60;10.23;;;7.20;1.00;;;;;;5072733;28;20233;-79
2023/11/23 04:14:11;;;;;;;22.53;12.67;;;7.20;1.00;;;;;;5078310;28;20717;-82
2023/11/23 04:16:38;;;;;;;20.83;11.90;;;7.20;99.90;;;;;;5084088;28;20615;-80
2023/11/23 04:19:05;;;;;;;23.80;12.83;;;7.20;1.00;;;;;;5078923;28;20270;-80
2023/11/23 04:21:32;;;;;;;21.93;12.30;;;7.10;99.90;;;;;;5089162;28;20604;-81
2023/11/23 04:23:59;;;;;;;22.17;12.73;;;7.10;1.00;;;;;;5082472;28;20206;-81
2023/11/23 04:26:27;;;;;;;22.90;12.67;;;7.10;1.00;;;;;;5076869;28;20198;-83
2023/11/23 04:28:54;;;;;;;23.27;13.37;;;7.10;1.00;;;;;;5085258;28;20221;-82
2023/11/23 04:31:21;;;;;;;21.53;12.30;;;7.10;1.00;;;;;;5078407;28;20683;-79
2023/11/23 04:33:47;;;;;;;21.43;11.97;;;7.10;63.10;;;;;;5072522;28;20284;-83
2023/11/23 04:36:14;;;;;;;23.30;13.47;;;7.10;99.90;;;;;;5076630;28;20281;-82
2023/11/23 04:38:41;;;;;;;21.77;12.40;;;7.10;1.00;;;;;;5070744;28;20756;-81
2023/11/23 04:41:08;;;;;;;22.83;12.13;;;7.10;1.00;;;;;;5075914;28;20202;-82
2023/11/23 04:43:36;;;;;;;19.27;11.70;;;7.10;1.00;;;;;;5077008;28;20202;-83
2023/11/23 04:46:03;;;;;;;19.93;11.90;;;7.20;99.90;;;;;;5075745;28;20202;-81
2023/11/23 04:48:30;;;;;;;20.40;11.63;;;7.20;47.20;;;;;;5077104;28;20218;-82
2023/11/23 04:50:58;;;;;;;23.40;14.20;;;7.20;99.90;;;;;;5077031;28;20867;-81
2023/11/23 04:53:25;;;;;;;20.87;12.43;;;7.20;1.00;;;;;;5067609;28;20230;-83
2023/11/23 04:55:52;;;;;;;23.23;13.70;;;7.20;99.90;;;;;;5069412;28;20285;-82
2023/11/23 04:58:19;;;;;;;20.70;12.03;;;7.30;1.00;;;;;;5071614;28;20233;-82
2023/11/23 05:00:48;;;;;;;20.33;12.00;;;7.50;1.00;;;;;;5071640;28;20257;-82
2023/11/23 05:03:15;;;;;;;20.90;12.77;;;7.40;1.00;;;;;;5070631;28;20207;-82
2023/11/23 05:05:42;;;;;;;20.43;12.50;;;7.40;99.90;;;;;;5071889;28;20210;-81
2023/11/23 05:08:09;;;;;;;21.67;12.40;;;7.40;99.90;;;;;;5070261;28;20226;-79
2023/11/23 05:10:36;;;;;;;18.87;10.80;;;7.40;1.00;;;;;;5071070;28;20662;-80
2023/11/23 05:13:03;;;;;;;21.63;12.23;;;7.50;1.00;;;;;;5073181;28;20209;-81
2023/11/23 05:15:30;;;;;;;20.70;11.83;;;7.50;1.00;;;;;;5071915;28;20230;-83
2023/11/23 05:17:59;;;;;;;18.97;11.90;;;7.50;1.00;;;;;;5073419;28;20670;-82
2023/11/23 05:20:25;;;;;;;18.60;11.53;;;7.50;1.00;;;;;;5063207;28;20655;-83
2023/11/23 05:22:52;;;;;;;19.10;11.70;;;7.60;1.00;;;;;;5065067;28;20687;-82
2023/11/23 05:25:19;;;;;;;19.53;12.03;;;7.60;99.90;;;;;;5069345;28;20293;-85
2023/11/23 05:27:46;;;;;;;19.47;11.70;;;7.60;99.90;;;;;;5069961;28;20698;-80
2023/11/23 05:30:13;;;;;;;18.17;11.20;;;7.70;99.90;;;;;;5062734;28;20262;-83
2023/11/23 05:32:40;;;;;;;19.70;12.13;;;7.70;99.90;;;;;;5066712;28;20742;-83
2023/11/23 05:35:10;;;;;;;19.47;11.90;;;7.70;99.90;;;;;;5077021;28;20214;-82
2023/11/23 05:37:36;;;;;;;20.87;13.07;;;7.70;99.90;;;;;;5079545;28;20222;-83
2023/11/23 05:40:04;;;;;;;20.50;10.47;;;7.70;1.00;;;;;;5073206;28;20752;-81
2023/11/23 05:42:31;;;;;;;21.57;13.53;;;7.70;1.00;;;;;;5073290;28;20616;-82
2023/11/23 05:44:58;;;;;;;21.20;12.37;;;7.80;1.00;;;;;;5076870;28;20202;-82
2023/11/23 05:47:25;;;;;;;20.30;12.77;;;7.70;99.90;;;;;;5072929;28;20594;-83
2023/11/23 05:49:52;;;;;;;20.70;12.57;;;7.70;53.00;;;;;;5076079;28;20662;-80
2023/11/23 05:52:21;;;;;;;21.00;12.47;;;7.80;1.00;;;;;;5073828;28;20285;-83
2023/11/23 05:54:47;;;;;;;20.57;12.60;;;7.80;1.00;;;;;;5078773;28;20226;-82
2023/11/23 05:57:14;;;;;;;20.73;11.67;;;7.80;1.00;;;;;;5072332;28;20224;-79
2023/11/23 05:59:41;;;;;;;21.17;13.13;;;7.80;1.00;;;;;;5073710;28;20209;-83
2023/11/23 06:02:08;;;;;;;21.37;12.30;;;7.90;1.00;;;;;;5071846;28;20198;-83
2023/11/23 06:04:35;;;;;;;20.37;11.27;;;7.90;1.00;;;;;;5074601;28;20203;-82
2023/11/23 06:07:03;;;;;;;19.73;12.23;;;7.90;99.90;;;;;;5080459;28;20214;-84
2023/11/23 06:09:31;;;;;;;20.60;12.60;;;7.90;99.90;;;;;;5074606;28;20544;-82
2023/11/23 06:11:58;;;;;;;21.00;12.70;;;7.90;1.00;;;;;;5075740;28;20210;-82
2023/11/23 06:14:25;;;;;;;21.93;12.50;;;7.90;99.90;;;;;;5076832;28;20217;-80
2023/11/23 06:16:52;;;;;;;19.70;11.20;;;7.90;1.00;;;;;;5068571;28;20202;-82
2023/11/23 06:19:19;;;;;;;20.33;12.43;;;8.10;1.00;;;;;;5071860;28;20198;-83
2023/11/23 06:21:46;;;;;;;21.20;12.67;;;7.90;1.00;;;;;;5071208;28;20214;-84
2023/11/23 06:24:13;;;;;;;21.43;13.00;;;8.00;1.00;;;;;;5071417;28;20194;-81
2023/11/23 06:26:43;;;;;;;22.07;13.07;;;8.10;99.90;;;;;;5067322;28;20301;-80
2023/11/23 06:29:10;;;;;;;23.53;12.90;;;8.10;99.90;;;;;;5070699;28;20202;-82
2023/11/23 06:31:37;;;;;;;20.07;12.87;;;8.10;1.00;;;;;;5090146;28;20265;-83
2023/11/23 06:34:04;;;;;;;21.47;12.63;;;8.20;1.00;;;;;;5067806;28;20236;-80
2023/11/23 06:36:31;;;;;;;24.13;14.87;;;8.10;99.90;;;;;;5066079;28;20666;-81
2023/11/23 06:38:58;;;;;;;23.80;13.37;;;8.20;99.90;;;;;;5071025;28;20305;-81
2023/11/23 06:41:25;;;;;;;23.90;13.80;;;8.30;99.90;;;;;;5078214;28;20234;-83
2023/11/23 06:43:53;;;;;;;24.63;16.17;;;8.20;1.00;;;;;;5074174;28;20252;-81
2023/11/23 06:46:21;;;;;;;25.17;15.57;;;8.20;1.00;;;;;;5074907;28;20202;-83
2023/11/23 06:48:49;;;;;;;27.50;15.63;;;8.20;1.00;;;;;;5077019;28;20307;-83
2023/11/23 06:51:16;;;;;;;27.00;15.57;;;8.20;1.00;;;;;;5076011;28;20206;-81
2023/11/23 06:53:46;;;;;;;25.13;15.47;;;8.20;50.90;;;;;;5072841;28;20201;-82
2023/11/23 06:56:13;;;;;;;23.77;14.73;;;8.20;99.90;;;;;;5076428;28;20260;-81
2023/11/23 06:58:40;;;;;;;25.77;15.37;;;8.20;99.90;;;;;;5071124;28;20235;-83
2023/11/23 07:01:09;;;;;;;24.00;14.30;;;8.20;99.90;;;;;;5073556;28;20667;-83
2023/11/23 07:03:37;;;;;;;22.70;13.37;;;8.30;99.90;;;;;;5078192;28;20198;-83
2023/11/23 07:06:04;;;;;;;23.53;14.17;;;8.20;99.90;;;;;;5060662;28;20206;-82
2023/11/23 07:08:31;;;;;;;21.67;13.17;;;8.20;99.90;;;;;;5084777;28;20233;-84
2023/11/23 07:10:59;;;;;;;21.97;13.03;;;8.20;99.90;;;;;;5080944;28;20236;-82
2023/11/23 07:13:25;;;;;;;24.17;13.87;;;8.30;99.90;;;;;;5080655;28;20198;-83
2023/11/23 07:15:53;;;;;;;21.17;12.53;;;8.20;99.90;;;;;;5093167;28;20312;-84
2023/11/23 07:18:21;;;;;;;21.73;13.37;;;8.30;99.90;;;;;;5079979;28;20228;-82
2023/11/23 07:20:48;;;;;;;21.87;12.97;;;8.20;99.90;;;;;;5079458;28;20286;-83
2023/11/23 07:23:15;;;;;;;22.57;13.47;;;8.20;99.90;;;;;;5077217;28;20206;-83
2023/11/23 07:25:44;;;;;;;21.27;12.33;;;8.20;99.90;;;;;;5070191;28;20218;-84
2023/11/23 07:28:11;;;;;;;20.87;12.67;;;8.20;99.90;;;;;;5078365;28;20265;-84
2023/11/23 07:30:39;;;;;;;21.97;12.37;;;8.30;99.90;;;;;;5071739;28;20209;-84
2023/11/23 07:33:07;;;;;;;19.20;12.43;;;8.20;99.90;;;;;;5096406;28;20205;-84
2023/11/23 07:35:36;;;;;;;20.67;12.37;;;8.20;99.90;;;;;;5093807;28;20260;-82
2023/11/23 07:38:03;;;;;;;21.20;12.27;;;8.20;99.90;;;;;;5095240;28;20224;-82
2023/11/23 07:40:30;;;;;;;20.00;10.60;;;8.20;99.90;;;;;;5085343;28;20573;-84
2023/11/23 07:42:57;;;;;;;19.33;12.20;;;8.20;99.90;;;;;;5063693;28;20290;-83
2023/11/23 07:45:24;;;;;;;20.20;11.03;;;8.20;99.90;;;;;;5069824;28;20271;-83
2023/11/23 07:47:51;;;;;;;17.80;10.63;;;8.20;99.90;;;;;;5079022;28;20226;-80
2023/11/23 07:50:17;;;;;;;19.13;11.60;;;8.30;99.90;;;;;;5098343;28;20206;-83
2023/11/23 07:52:47;;;;;;;18.27;10.43;;;8.40;99.90;;;;;;5091468;28;20236;-83
2023/11/23 07:55:15;;;;;;;19.70;10.37;;;8.60;99.90;;;;;;5083259;28;20223;-83
2023/11/23 07:57:43;;;;;;;17.63;9.47;;;8.30;99.90;;;;;;5069444;28;20218;-84
2023/11/23 08:00:13;;;;;;;16.83;9.40;;;8.40;99.90;;;;;;5080309;28;20255;-83
2023/11/23 08:02:40;;;;;;;15.37;9.57;;;8.40;99.90;;;;;;5079853;28;20238;-82
2023/11/23 08:05:09;;;;;;;17.10;9.70;;;8.40;99.90;;;;;;5073006;28;20228;-81
2023/11/23 08:07:35;;;;;;;16.83;9.90;;;8.50;99.90;;;;;;5076646;28;20231;-82
2023/11/23 08:10:10;;;;;;;15.57;9.90;;;8.50;99.90;;;;;;5077829;28;20198;-80
2023/11/23 08:12:39;;;;;;;15.80;10.23;;;8.60;99.90;;;;;;5069966;28;20250;-81
2023/11/23 08:15:07;;;;;;;16.50;10.50;;;8.60;99.90;;;;;;5089612;28;20225;-80
2023/11/23 08:17:34;;;;;;;17.10;10.67;;;8.60;99.90;;;;;;5084425;28;20309;-84
2023/11/23 08:20:00;;;;;;;18.07;10.97;;;8.60;99.90;;;;;;5078782;28;20321;-83
2023/11/23 08:22:27;;;;;;;18.47;10.90;;;8.70;99.90;;;;;;5072061;28;20238;-84
2023/11/23 08:24:54;;;;;;;17.50;10.53;;;8.70;99.90;;;;;;5077062;28;20319;-82
2023/11/23 08:27:24;;;;;;;18.67;10.53;;;8.80;99.90;;;;;;5078377;28;20321;-83
2023/11/23 08:29:52;;;;;;;21.30;11.77;;;8.80;99.90;;;;;;5078123;28;20202;-81
2023/11/23 08:32:19;;;;;;;24.57;12.87;;;8.80;99.90;;;;;;5088343;28;20236;-81
2023/11/23 08:34:48;;;;;;;22.30;12.23;;;8.90;99.90;;;;;;5078828;28;20234;-83
2023/11/23 08:37:15;;;;;;;21.67;12.27;;;8.80;99.90;;;;;;5076886;28;20272;-82
2023/11/23 08:39:42;;;;;;;21.50;13.20;;;8.90;99.90;;;;;;5098667;28;20190;-83
2023/11/23 08:42:10;;;;;;;20.97;12.73;;;8.90;99.90;;;;;;5079164;28;20208;-82
2023/11/23 08:44:38;;;;;;;20.67;12.57;;;8.90;99.90;;;;;;5067154;28;20586;-83
2023/11/23 08:47:06;;;;;;;22.33;12.80;;;8.90;99.90;;;;;;5081813;28;20286;-83
2023/11/23 08:49:33;;;;;;;18.73;11.23;;;9.00;99.90;;;;;;5072994;28;20195;-85
2023/11/23 08:51:59;;;;;;;18.70;11.17;;;9.00;99.90;;;;;;5071692;28;20236;-83
2023/11/23 08:54:26;;;;;;;18.33;11.20;;;9.00;99.90;;;;;;5085910;28;20241;-83
2023/11/23 08:56:53;;;;;;;18.60;10.30;;;9.00;99.90;;;;;;5077587;28;20206;-81
2023/11/23 08:59:20;;;;;;;16.60;10.27;;;9.00;99.90;;;;;;5078111;28;20217;-81
2023/11/23 09:01:49;;;;;;;19.60;11.47;;;9.10;99.90;;;;;;5086495;28;20210;-84
2023/11/23 09:04:16;;;;;;;18.07;11.50;;;9.10;99.90;;;;;;5078539;28;20264;-84
2023/11/23 09:06:43;;;;;;;19.97;11.47;;;9.10;99.90;;;;;;5076194;28;20548;-83
2023/11/23 09:09:10;;;;;;;16.27;9.83;;;9.10;99.90;;;;;;5078147;28;20213;-82
2023/11/23 09:11:37;;;;;;;16.50;9.63;;;9.10;99.90;;;;;;5068399;28;20648;-82
2023/11/23 09:14:03;;;;;;;15.80;10.20;;;9.10;99.90;;;;;;5062132;28;20199;-84
2023/11/23 09:16:30;;;;;;;17.60;10.13;;;9.10;99.90;;;;;;5088383;28;20287;-82
2023/11/23 09:18:58;;;;;;;17.13;10.07;;;9.20;99.90;;;;;;5095953;28;20312;-83
2023/11/23 09:21:25;;;;;;;16.60;9.87;;;9.20;99.90;;;;;;5098530;28;20231;-83
2023/11/23 09:23:53;;;;;;;15.97;10.23;;;9.20;99.90;;;;;;5079482;28;20218;-84
2023/11/23 09:26:20;;;;;;;16.57;9.70;;;9.20;99.90;;;;;;5072132;28;20199;-81
2023/11/23 09:28:47;;;;;;;15.50;9.30;;;9.40;99.90;;;;;;5075716;28;20222;-82
2023/11/23 09:31:14;;;;;;;17.70;10.13;;;9.40;99.90;;;;;;5077992;28;20207;-82
2023/11/23 09:33:41;;;;;;;17.47;10.67;;;9.40;99.90;;;;;;5082233;28;20206;-82
2023/11/23 09:36:11;;;;;;;16.77;11.17;;;9.40;99.90;;;;;;5079540;28;20211;-85
2023/11/23 09:38:38;;;;;;;16.37;10.20;;;9.40;99.90;;;;;;5067896;28;20222;-84
2023/11/23 09:41:11;;;;;;;18.13;10.87;;;9.50;99.90;;;;;;5076339;28;20212;-82
2023/11/23 09:43:38;;;;;;;16.97;11.00;;;9.50;99.90;;;;;;5076124;28;20198;-80
2023/11/23 09:46:06;;;;;;;14.87;9.23;;;9.50;99.90;;;;;;5075785;28;20276;-83
2023/11/23 09:48:37;;;;;;;16.70;9.63;;;9.60;99.90;;;;;;5076654;28;20744;-82
2023/11/23 09:51:04;;;;;;;15.70;9.80;;;9.60;99.90;;;;;;5076461;28;20233;-82
2023/11/23 09:53:33;;;;;;;18.43;11.23;;;9.60;99.90;;;;;;5067934;28;20241;-83
2023/11/23 09:56:03;;;;;;;17.80;11.37;;;9.70;99.90;;;;;;5090068;28;20590;-81
2023/11/23 09:58:32;;;;;;;17.27;11.60;;;9.60;99.90;;;;;;5079619;28;20222;-83
2023/11/23 10:01:03;;;;;;;20.40;12.63;;;9.60;99.90;;;;;;5077341;28;20206;-83
2023/11/23 10:03:33;;;;;;;23.03;13.90;;;9.70;99.90;;;;;;5077065;28;20637;-81
2023/11/23 10:06:00;;;;;;;23.13;13.97;;;9.70;99.90;;;;;;5077683;28;20206;-81
2023/11/23 10:08:28;;;;;;;23.23;14.73;;;9.70;99.90;;;;;;5077815;28;20308;-81
2023/11/23 10:10:57;;;;;;;23.53;15.27;;;9.60;99.90;;;;;;5076636;28;20213;-81
2023/11/23 10:13:24;;;;;;;23.67;15.27;;;9.60;99.90;;;;;;5070413;28;20183;-81
2023/11/23 10:15:51;;;;;;;26.37;15.13;;;9.60;99.90;;;;;;5075237;28;20229;-82
2023/11/23 10:18:19;;;;;;;23.63;15.90;;;9.60;99.90;;;;;;5076595;28;20271;-83
2023/11/23 10:20:46;;;;;;;23.40;14.57;;;9.60;99.90;;;;;;5076074;28;20206;-83
2023/11/23 10:23:14;;;;;;;24.53;15.10;;;9.60;99.90;;;;;;5076230;28;20573;-81
2023/11/23 10:25:42;;;;;;;22.07;14.63;;;9.50;99.90;;;;;;5093025;28;20228;-82
2023/11/23 10:28:10;;;;;;;20.73;13.77;;;9.50;99.90;;;;;;5077342;28;20222;-81
2023/11/23 10:30:37;;;;;;;23.40;14.13;;;9.60;99.90;;;;;;5096388;28;20209;-82
2023/11/23 10:33:05;;;;;;;22.50;15.13;;;9.60;99.90;;;;;;5098429;28;20256;-81
2023/11/23 10:35:37;;;;;;;21.63;14.23;;;9.60;99.90;;;;;;5086358;28;20317;-83
2023/11/23 10:38:06;;;;;;;21.27;13.83;;;9.60;99.90;;;;;;5080427;28;20221;-84
2023/11/23 10:40:34;;;;;;;24.33;14.17;;;9.60;99.90;;;;;;5080188;28;20216;-82
2023/11/23 10:43:02;;;;;;;19.70;12.77;;;9.70;99.90;;;;;;5081199;28;20666;-83
2023/11/23 10:45:31;;;;;;;20.33;12.53;;;9.70;99.90;;;;;;5097696;28;20228;-84
2023/11/23 10:47:59;;;;;;;19.77;13.20;;;9.80;99.90;;;;;;5098987;28;20218;-83
2023/11/23 10:50:26;;;;;;;19.40;11.43;;;9.70;99.90;;;;;;5098935;28;20201;-80
2023/11/23 10:52:57;;;;;;;17.73;11.17;;;9.70;99.90;;;;;;5080496;28;20213;-82
2023/11/23 10:55:24;;;;;;;16.37;10.60;;;9.90;99.90;;;;;;5080854;28;20217;-81
2023/11/23 10:57:56;;;;;;;17.77;10.07;;;9.80;99.90;;;;;;5080104;28;20719;-82
2023/11/23 11:00:25;;;;;;;16.30;10.20;;;9.90;99.90;;;;;;5095720;28;20277;-81
2023/11/23 11:02:55;;;;;;;16.50;10.03;;;9.90;99.90;;;;;;5077560;28;20199;-82
2023/11/23 11:05:28;;;;;;;18.67;10.77;;;9.90;99.90;;;;;;5071819;28;20209;-81
2023/11/23 11:08:00;;;;;;;20.20;11.30;;;10.00;99.90;;;;;;5080473;28;20230;-83
2023/11/23 11:10:27;;;;;;;18.07;9.87;;;10.10;99.90;;;;;;5079979;28;20198;-81
2023/11/23 11:13:05;;;;;;;16.77;10.30;;;10.10;99.90;;;;;;5079961;28;20206;-82
2023/11/23 11:15:32;;;;;;;16.40;10.77;;;10.20;99.90;;;;;;5078467;28;20230;-82
2023/11/23 11:18:06;;;;;;;17.97;10.80;;;10.30;99.90;;;;;;5079040;28;20245;-80
2023/11/23 11:20:33;;;;;;;17.03;10.60;;;10.30;99.90;;;;;;5063473;28;20237;-80
2023/11/23 11:23:00;;;;;;;17.13;10.73;;;10.30;99.90;;;;;;5061909;28;20202;-82
2023/11/23 11:25:39;;;;;;;16.70;10.07;;;10.30;99.90;;;;;;5074045;28;20219;-81
2023/11/23 11:28:10;;;;;;;16.23;9.70;;;10.40;1.00;;;;;;5081617;28;20229;-82
2023/11/23 11:30:38;;;;;;;14.83;9.37;;;10.40;1.00;;;;;;5081178;28;20213;-83
2023/11/23 11:33:08;;;;;;;14.13;9.83;;;10.50;1.00;;;;;;5080265;28;20214;-83
2023/11/23 11:35:44;;;;;;;16.77;9.30;;;10.50;99.90;;;;;;5067346;28;20207;-79
2023/11/23 11:38:15;;;;;;;17.13;9.47;;;10.50;4.30;;;;;;5081126;28;20226;-79
2023/11/23 11:40:43;;;;;;;14.90;9.27;;;10.50;1.00;;;;;;5080360;28;20553;-80
2023/11/23 11:43:11;;;;;;;16.27;10.07;;;10.60;1.00;;;;;;5074082;28;20211;-83
2023/11/23 11:45:41;;;;;;;19.30;10.97;;;10.60;1.00;;;;;;5076370;28;20202;-82
2023/11/23 11:48:10;;;;;;;20.17;10.03;;;10.60;99.90;;;;;;5067653;28;20318;-81
2023/11/23 11:50:36;;;;;;;16.27;9.57;;;10.60;99.90;;;;;;5064905;28;20212;-81
2023/11/23 11:53:06;;;;;;;18.13;10.20;;;10.60;99.90;;;;;;5074526;28;20209;-80
2023/11/23 11:55:32;;;;;;;15.63;9.67;;;10.70;99.90;;;;;;5069913;28;20221;-77
2023/11/23 11:57:59;;;;;;;16.87;10.00;;;10.70;1.00;;;;;;5078108;28;20230;-82
2023/11/23 12:00:26;;;;;;;15.33;10.00;;;10.70;1.00;;;;;;5068687;28;20209;-79
2023/11/23 12:02:53;;;;;;;16.17;9.77;;;10.70;1.00;;;;;;5079832;28;20202;-81
2023/11/23 12:05:23;;;;;;;15.77;9.70;;;10.70;1.00;;;;;;5078045;28;20202;-80
2023/11/23 12:07:53;;;;;;;14.87;9.73;;;10.70;1.00;;;;;;5074514;28;20218;-82
2023/11/23 12:10:21;;;;;;;18.10;10.20;;;10.70;1.00;;;;;;5073779;28;20206;-80
2023/11/23 12:12:48;;;;;;;15.67;10.27;;;10.70;1.00;;;;;;5071942;28;20213;-80
2023/11/23 12:15:16;;;;;;;14.90;8.97;;;10.70;1.00;;;;;;5075713;28;20551;-77
2023/11/23 12:17:50;;;;;;;13.30;9.23;;;10.90;1.00;;;;;;5068489;28;20252;-78
2023/11/23 12:20:18;;;;;;;12.97;8.97;;;10.80;99.90;;;;;;5063348;28;20194;-79
2023/11/23 12:22:46;;;;;;;14.90;9.20;;;10.80;99.90;;;;;;5077834;28;20198;-81
2023/11/23 12:25:13;;;;;;;14.97;9.30;;;10.70;99.90;;;;;;5073244;28;20203;-81
2023/11/23 12:27:44;;;;;;;16.97;10.10;;;10.80;99.90;;;;;;5077423;28;20272;-81
2023/11/23 12:30:15;;;;;;;13.27;8.37;;;10.90;99.90;;;;;;5069903;28;20210;-79
2023/11/23 12:32:41;;;;;;;14.57;8.50;;;10.80;1.00;;;;;;5074107;28;20226;-79
2023/11/23 12:35:09;;;;;;;16.70;12.63;;;10.90;7.00;;;;;;5067555;28;20230;-82
2023/11/23 12:37:36;;;;;;;14.13;9.00;;;10.80;1.00;;;;;;5090962;28;20233;-81
2023/11/23 12:40:09;;;;;;;13.83;8.20;;;10.80;1.00;;;;;;5082463;28;20695;-81
2023/11/23 12:42:36;;;;;;;11.93;8.27;;;11.00;1.00;;;;;;5058854;28;20199;-81
2023/11/23 12:45:08;;;;;;;14.67;8.63;;;10.90;1.00;;;;;;5066136;28;20209;-81